<?xml version="1.0" encoding="UTF-8" standalone="no" ?>
<gpx xmlns="http://www.topografix.com/GPX/1/1" xmlns:xsi="http://www.w3.org/2001/XMLSchema-instance" xsi:schemaLocation="http://www.topografix.com/GPX/1/1 http://www.topografix.com/GPX/1/1/gpx.xsd" version="1.1" creator="VisuGPX - https://www.visugpx.com">
  <metadata>
    <name>Vailhés Barrage Olivettes</name>
    <desc><![CDATA[randonnée au bord du barrage des Olivettes. facile.
]]></desc>
  </metadata>
  <trk>
    <name><![CDATA[8256453-Vailhés Barrage]]></name>
    <trkseg>
      <trkpt lat="43.55416" lon="3.29672">
        <ele>137</ele>
        <time>2018-01-14T11:13:39Z</time>
      </trkpt>
      <trkpt lat="43.55455" lon="3.29646">
        <ele>140</ele>
        <time>2018-01-14T11:14:39Z</time>
      </trkpt>
      <trkpt lat="43.55467" lon="3.29593">
        <ele>143</ele>
        <time>2018-01-14T11:15:39Z</time>
      </trkpt>
      <trkpt lat="43.55464" lon="3.29545">
        <ele>145</ele>
        <time>2018-01-14T11:16:39Z</time>
      </trkpt>
      <trkpt lat="43.55532" lon="3.29545">
        <ele>144</ele>
        <time>2018-01-14T11:17:39Z</time>
      </trkpt>
      <trkpt lat="43.55556" lon="3.29588">
        <ele>141</ele>
        <time>2018-01-14T11:18:39Z</time>
      </trkpt>
      <trkpt lat="43.55589" lon="3.29578">
        <ele>140</ele>
        <time>2018-01-14T11:19:39Z</time>
      </trkpt>
      <trkpt lat="43.556" lon="3.29547">
        <ele>143</ele>
        <time>2018-01-14T11:20:39Z</time>
      </trkpt>
      <trkpt lat="43.55672" lon="3.29559">
        <ele>142</ele>
        <time>2018-01-14T11:21:39Z</time>
      </trkpt>
      <trkpt lat="43.55704" lon="3.29578">
        <ele>139</ele>
        <time>2018-01-14T11:22:39Z</time>
      </trkpt>
      <trkpt lat="43.55767" lon="3.29583">
        <ele>140</ele>
        <time>2018-01-14T11:23:39Z</time>
      </trkpt>
      <trkpt lat="43.55837" lon="3.29595">
        <ele>146</ele>
        <time>2018-01-14T11:24:39Z</time>
      </trkpt>
      <trkpt lat="43.5582" lon="3.29549">
        <ele>151</ele>
        <time>2018-01-14T11:25:39Z</time>
      </trkpt>
      <trkpt lat="43.55862" lon="3.29545">
        <ele>158</ele>
        <time>2018-01-14T11:26:39Z</time>
      </trkpt>
      <trkpt lat="43.55993" lon="3.29456">
        <ele>188</ele>
        <time>2018-01-14T11:27:39Z</time>
      </trkpt>
      <trkpt lat="43.55979" lon="3.29613">
        <ele>179</ele>
        <time>2018-01-14T11:28:39Z</time>
      </trkpt>
      <trkpt lat="43.56017" lon="3.29698">
        <ele>181</ele>
        <time>2018-01-14T11:29:39Z</time>
      </trkpt>
      <trkpt lat="43.56073" lon="3.29752">
        <ele>187</ele>
        <time>2018-01-14T11:30:39Z</time>
      </trkpt>
      <trkpt lat="43.56058" lon="3.29794">
        <ele>180</ele>
        <time>2018-01-14T11:31:39Z</time>
      </trkpt>
      <trkpt lat="43.56084" lon="3.29857">
        <ele>179</ele>
        <time>2018-01-14T11:32:39Z</time>
      </trkpt>
      <trkpt lat="43.56175" lon="3.29948">
        <ele>173</ele>
        <time>2018-01-14T11:33:39Z</time>
      </trkpt>
      <trkpt lat="43.56195" lon="3.29955">
        <ele>170</ele>
        <time>2018-01-14T11:34:39Z</time>
      </trkpt>
      <trkpt lat="43.56205" lon="3.29939">
        <ele>170</ele>
        <time>2018-01-14T11:35:39Z</time>
      </trkpt>
      <trkpt lat="43.56198" lon="3.29819">
        <ele>177</ele>
        <time>2018-01-14T11:36:39Z</time>
      </trkpt>
      <trkpt lat="43.56202" lon="3.29697">
        <ele>180</ele>
        <time>2018-01-14T11:37:39Z</time>
      </trkpt>
      <trkpt lat="43.56226" lon="3.29606">
        <ele>176</ele>
        <time>2018-01-14T11:38:39Z</time>
      </trkpt>
      <trkpt lat="43.56263" lon="3.29505">
        <ele>182</ele>
        <time>2018-01-14T11:39:39Z</time>
      </trkpt>
      <trkpt lat="43.56305" lon="3.29456">
        <ele>177</ele>
        <time>2018-01-14T11:40:39Z</time>
      </trkpt>
      <trkpt lat="43.5631" lon="3.29417">
        <ele>181</ele>
        <time>2018-01-14T11:41:39Z</time>
      </trkpt>
      <trkpt lat="43.56298" lon="3.29378">
        <ele>190</ele>
        <time>2018-01-14T11:42:39Z</time>
      </trkpt>
      <trkpt lat="43.56341" lon="3.29373">
        <ele>184</ele>
        <time>2018-01-14T11:43:39Z</time>
      </trkpt>
      <trkpt lat="43.56364" lon="3.294">
        <ele>178</ele>
        <time>2018-01-14T11:44:39Z</time>
      </trkpt>
      <trkpt lat="43.56396" lon="3.29385">
        <ele>181</ele>
        <time>2018-01-14T11:45:39Z</time>
      </trkpt>
      <trkpt lat="43.5644" lon="3.29388">
        <ele>178</ele>
        <time>2018-01-14T11:46:39Z</time>
      </trkpt>
      <trkpt lat="43.56503" lon="3.29372">
        <ele>177</ele>
        <time>2018-01-14T11:47:39Z</time>
      </trkpt>
      <trkpt lat="43.5653" lon="3.29328">
        <ele>183</ele>
        <time>2018-01-14T11:48:39Z</time>
      </trkpt>
      <trkpt lat="43.56545" lon="3.29257">
        <ele>191</ele>
        <time>2018-01-14T11:49:39Z</time>
      </trkpt>
      <trkpt lat="43.56568" lon="3.29275">
        <ele>188</ele>
        <time>2018-01-14T11:50:39Z</time>
      </trkpt>
      <trkpt lat="43.56583" lon="3.29343">
        <ele>177</ele>
        <time>2018-01-14T11:51:39Z</time>
      </trkpt>
      <trkpt lat="43.56735" lon="3.29349">
        <ele>179</ele>
        <time>2018-01-14T11:52:39Z</time>
      </trkpt>
      <trkpt lat="43.56802" lon="3.29328">
        <ele>172</ele>
        <time>2018-01-14T11:53:39Z</time>
      </trkpt>
      <trkpt lat="43.56824" lon="3.29279">
        <ele>174</ele>
        <time>2018-01-14T11:54:39Z</time>
      </trkpt>
      <trkpt lat="43.56812" lon="3.29222">
        <ele>180</ele>
        <time>2018-01-14T11:55:39Z</time>
      </trkpt>
      <trkpt lat="43.56788" lon="3.29177">
        <ele>185</ele>
        <time>2018-01-14T11:56:39Z</time>
      </trkpt>
      <trkpt lat="43.56778" lon="3.29066">
        <ele>187</ele>
        <time>2018-01-14T11:57:39Z</time>
      </trkpt>
      <trkpt lat="43.56785" lon="3.28957">
        <ele>195</ele>
        <time>2018-01-14T11:58:39Z</time>
      </trkpt>
      <trkpt lat="43.56815" lon="3.28795">
        <ele>209</ele>
        <time>2018-01-14T11:59:39Z</time>
      </trkpt>
      <trkpt lat="43.56769" lon="3.28875">
        <ele>212</ele>
        <time>2018-01-14T12:00:39Z</time>
      </trkpt>
      <trkpt lat="43.56783" lon="3.28809">
        <ele>216</ele>
        <time>2018-01-14T12:01:39Z</time>
      </trkpt>
      <trkpt lat="43.56779" lon="3.28766">
        <ele>223</ele>
        <time>2018-01-14T12:02:39Z</time>
      </trkpt>
      <trkpt lat="43.56767" lon="3.28707">
        <ele>234</ele>
        <time>2018-01-14T12:03:39Z</time>
      </trkpt>
      <trkpt lat="43.56785" lon="3.28681">
        <ele>236</ele>
        <time>2018-01-14T12:04:39Z</time>
      </trkpt>
      <trkpt lat="43.56854" lon="3.28699">
        <ele>223</ele>
        <time>2018-01-14T12:05:39Z</time>
      </trkpt>
      <trkpt lat="43.56879" lon="3.28681">
        <ele>221</ele>
        <time>2018-01-14T12:06:39Z</time>
      </trkpt>
      <trkpt lat="43.56855" lon="3.28614">
        <ele>230</ele>
        <time>2018-01-14T12:07:39Z</time>
      </trkpt>
      <trkpt lat="43.5684" lon="3.28647">
        <ele>234</ele>
        <time>2018-01-14T12:08:39Z</time>
      </trkpt>
      <trkpt lat="43.56774" lon="3.2857">
        <ele>250</ele>
        <time>2018-01-14T12:09:39Z</time>
      </trkpt>
      <trkpt lat="43.5672" lon="3.28476">
        <ele>257</ele>
        <time>2018-01-14T12:10:39Z</time>
      </trkpt>
      <trkpt lat="43.56691" lon="3.28552">
        <ele>254</ele>
        <time>2018-01-14T12:11:39Z</time>
      </trkpt>
      <trkpt lat="43.56657" lon="3.28589">
        <ele>253</ele>
        <time>2018-01-14T12:12:39Z</time>
      </trkpt>
      <trkpt lat="43.5659" lon="3.28646">
        <ele>255</ele>
        <time>2018-01-14T12:13:39Z</time>
      </trkpt>
      <trkpt lat="43.56491" lon="3.28821">
        <ele>259</ele>
        <time>2018-01-14T12:14:39Z</time>
      </trkpt>
      <trkpt lat="43.5646" lon="3.28837">
        <ele>257</ele>
        <time>2018-01-14T12:15:39Z</time>
      </trkpt>
      <trkpt lat="43.56439" lon="3.2889">
        <ele>254</ele>
        <time>2018-01-14T12:16:39Z</time>
      </trkpt>
      <trkpt lat="43.56362" lon="3.28951">
        <ele>253</ele>
        <time>2018-01-14T12:17:39Z</time>
      </trkpt>
      <trkpt lat="43.56277" lon="3.29007">
        <ele>258</ele>
        <time>2018-01-14T12:18:39Z</time>
      </trkpt>
      <trkpt lat="43.56201" lon="3.28984">
        <ele>259</ele>
        <time>2018-01-14T12:19:39Z</time>
      </trkpt>
      <trkpt lat="43.56126" lon="3.2901">
        <ele>261</ele>
        <time>2018-01-14T12:20:39Z</time>
      </trkpt>
      <trkpt lat="43.56061" lon="3.28981">
        <ele>257</ele>
        <time>2018-01-14T12:21:39Z</time>
      </trkpt>
      <trkpt lat="43.55989" lon="3.28993">
        <ele>253</ele>
        <time>2018-01-14T12:22:39Z</time>
      </trkpt>
      <trkpt lat="43.55919" lon="3.28951">
        <ele>243</ele>
        <time>2018-01-14T12:23:39Z</time>
      </trkpt>
      <trkpt lat="43.55899" lon="3.28905">
        <ele>242</ele>
        <time>2018-01-14T12:24:39Z</time>
      </trkpt>
      <trkpt lat="43.5586" lon="3.28882">
        <ele>242</ele>
        <time>2018-01-14T12:25:39Z</time>
      </trkpt>
      <trkpt lat="43.55831" lon="3.28884">
        <ele>243</ele>
        <time>2018-01-14T12:26:39Z</time>
      </trkpt>
      <trkpt lat="43.55809" lon="3.2891">
        <ele>247</ele>
        <time>2018-01-14T12:27:39Z</time>
      </trkpt>
      <trkpt lat="43.55759" lon="3.28948">
        <ele>253</ele>
        <time>2018-01-14T12:28:39Z</time>
      </trkpt>
      <trkpt lat="43.55747" lon="3.28887">
        <ele>256</ele>
        <time>2018-01-14T12:29:39Z</time>
      </trkpt>
      <trkpt lat="43.55696" lon="3.28863">
        <ele>254</ele>
        <time>2018-01-14T12:30:39Z</time>
      </trkpt>
      <trkpt lat="43.55612" lon="3.28882">
        <ele>252</ele>
        <time>2018-01-14T12:31:39Z</time>
      </trkpt>
      <trkpt lat="43.5553" lon="3.28804">
        <ele>253</ele>
        <time>2018-01-14T12:32:39Z</time>
      </trkpt>
      <trkpt lat="43.55424" lon="3.28766">
        <ele>255</ele>
        <time>2018-01-14T12:33:39Z</time>
      </trkpt>
      <trkpt lat="43.55448" lon="3.2883">
        <ele>254</ele>
        <time>2018-01-14T12:34:39Z</time>
      </trkpt>
      <trkpt lat="43.55422" lon="3.28871">
        <ele>255</ele>
        <time>2018-01-14T12:35:39Z</time>
      </trkpt>
      <trkpt lat="43.55408" lon="3.28909">
        <ele>256</ele>
        <time>2018-01-14T12:36:39Z</time>
      </trkpt>
      <trkpt lat="43.55372" lon="3.28981">
        <ele>256</ele>
        <time>2018-01-14T12:37:39Z</time>
      </trkpt>
      <trkpt lat="43.55356" lon="3.29">
        <ele>257</ele>
        <time>2018-01-14T12:38:39Z</time>
      </trkpt>
      <trkpt lat="43.55328" lon="3.28984">
        <ele>254</ele>
        <time>2018-01-14T12:39:39Z</time>
      </trkpt>
      <trkpt lat="43.55264" lon="3.28981">
        <ele>251</ele>
        <time>2018-01-14T12:40:39Z</time>
      </trkpt>
      <trkpt lat="43.55173" lon="3.29003">
        <ele>254</ele>
        <time>2018-01-14T12:41:39Z</time>
      </trkpt>
      <trkpt lat="43.55098" lon="3.29019">
        <ele>253</ele>
        <time>2018-01-14T12:42:39Z</time>
      </trkpt>
      <trkpt lat="43.55079" lon="3.29002">
        <ele>254</ele>
        <time>2018-01-14T12:43:39Z</time>
      </trkpt>
      <trkpt lat="43.55052" lon="3.28958">
        <ele>248</ele>
        <time>2018-01-14T12:44:39Z</time>
      </trkpt>
      <trkpt lat="43.55023" lon="3.28949">
        <ele>246</ele>
        <time>2018-01-14T12:45:39Z</time>
      </trkpt>
      <trkpt lat="43.54985" lon="3.28958">
        <ele>243</ele>
        <time>2018-01-14T12:46:39Z</time>
      </trkpt>
      <trkpt lat="43.54951" lon="3.28987">
        <ele>240</ele>
        <time>2018-01-14T12:47:39Z</time>
      </trkpt>
      <trkpt lat="43.54947" lon="3.29024">
        <ele>239</ele>
        <time>2018-01-14T12:48:39Z</time>
      </trkpt>
      <trkpt lat="43.5498" lon="3.29043">
        <ele>244</ele>
        <time>2018-01-14T12:49:39Z</time>
      </trkpt>
      <trkpt lat="43.54993" lon="3.29083">
        <ele>243</ele>
        <time>2018-01-14T12:50:39Z</time>
      </trkpt>
      <trkpt lat="43.55015" lon="3.29049">
        <ele>248</ele>
        <time>2018-01-14T12:51:39Z</time>
      </trkpt>
      <trkpt lat="43.55059" lon="3.2906">
        <ele>249</ele>
        <time>2018-01-14T12:52:39Z</time>
      </trkpt>
      <trkpt lat="43.55086" lon="3.29085">
        <ele>249</ele>
        <time>2018-01-14T12:53:39Z</time>
      </trkpt>
      <trkpt lat="43.55114" lon="3.29045">
        <ele>251</ele>
        <time>2018-01-14T12:54:39Z</time>
      </trkpt>
      <trkpt lat="43.55151" lon="3.29058">
        <ele>251</ele>
        <time>2018-01-14T12:55:39Z</time>
      </trkpt>
      <trkpt lat="43.55194" lon="3.29054">
        <ele>250</ele>
        <time>2018-01-14T12:56:39Z</time>
      </trkpt>
      <trkpt lat="43.55235" lon="3.2903">
        <ele>250</ele>
        <time>2018-01-14T12:57:39Z</time>
      </trkpt>
      <trkpt lat="43.55299" lon="3.29056">
        <ele>251</ele>
        <time>2018-01-14T12:58:39Z</time>
      </trkpt>
      <trkpt lat="43.5535" lon="3.29038">
        <ele>254</ele>
        <time>2018-01-14T12:59:39Z</time>
      </trkpt>
      <trkpt lat="43.55392" lon="3.29048">
        <ele>253</ele>
        <time>2018-01-14T13:00:39Z</time>
      </trkpt>
      <trkpt lat="43.55408" lon="3.29014">
        <ele>256</ele>
        <time>2018-01-14T13:01:39Z</time>
      </trkpt>
      <trkpt lat="43.55452" lon="3.29017">
        <ele>255</ele>
        <time>2018-01-14T13:02:39Z</time>
      </trkpt>
      <trkpt lat="43.55484" lon="3.28982">
        <ele>258</ele>
        <time>2018-01-14T13:03:39Z</time>
      </trkpt>
      <trkpt lat="43.55478" lon="3.28914">
        <ele>260</ele>
        <time>2018-01-14T13:04:39Z</time>
      </trkpt>
      <trkpt lat="43.55479" lon="3.28892">
        <ele>259</ele>
        <time>2018-01-14T13:05:39Z</time>
      </trkpt>
      <trkpt lat="43.55464" lon="3.28865">
        <ele>257</ele>
        <time>2018-01-14T13:06:39Z</time>
      </trkpt>
      <trkpt lat="43.55452" lon="3.28814">
        <ele>255</ele>
        <time>2018-01-14T13:07:39Z</time>
      </trkpt>
      <trkpt lat="43.55415" lon="3.28762">
        <ele>255</ele>
        <time>2018-01-14T13:08:39Z</time>
      </trkpt>
      <trkpt lat="43.55518" lon="3.28782">
        <ele>253</ele>
        <time>2018-01-14T13:09:39Z</time>
      </trkpt>
      <trkpt lat="43.5556" lon="3.28848">
        <ele>252</ele>
        <time>2018-01-14T13:10:39Z</time>
      </trkpt>
      <trkpt lat="43.55606" lon="3.28886">
        <ele>252</ele>
        <time>2018-01-14T13:11:39Z</time>
      </trkpt>
      <trkpt lat="43.55596" lon="3.28985">
        <ele>246</ele>
        <time>2018-01-14T13:12:39Z</time>
      </trkpt>
      <trkpt lat="43.55597" lon="3.29034">
        <ele>238</ele>
        <time>2018-01-14T13:13:39Z</time>
      </trkpt>
      <trkpt lat="43.55586" lon="3.29055">
        <ele>233</ele>
        <time>2018-01-14T13:14:39Z</time>
      </trkpt>
      <trkpt lat="43.55584" lon="3.29082">
        <ele>227</ele>
        <time>2018-01-14T13:15:39Z</time>
      </trkpt>
      <trkpt lat="43.55551" lon="3.29161">
        <ele>212</ele>
        <time>2018-01-14T13:16:39Z</time>
      </trkpt>
      <trkpt lat="43.55466" lon="3.29298">
        <ele>182</ele>
        <time>2018-01-14T13:17:39Z</time>
      </trkpt>
      <trkpt lat="43.55457" lon="3.29348">
        <ele>172</ele>
        <time>2018-01-14T13:18:39Z</time>
      </trkpt>
      <trkpt lat="43.55469" lon="3.29399">
        <ele>161</ele>
        <time>2018-01-14T13:19:39Z</time>
      </trkpt>
      <trkpt lat="43.55469" lon="3.2945">
        <ele>154</ele>
        <time>2018-01-14T13:20:39Z</time>
      </trkpt>
      <trkpt lat="43.55465" lon="3.29525">
        <ele>146</ele>
        <time>2018-01-14T13:21:39Z</time>
      </trkpt>
      <trkpt lat="43.55468" lon="3.29613">
        <ele>142</ele>
        <time>2018-01-14T13:22:39Z</time>
      </trkpt>
      <trkpt lat="43.55418" lon="3.29684">
        <ele>137</ele>
        <time>2018-01-14T13:23:39Z</time>
      </trkpt>
    </trkseg>
  </trk>
</gpx>